Terminal Aerodrome Forecast
Issued by NWS Wakefield, VA

Home | Current Version | Previous Version | Text Only | Print | Product List | Glossary On
Versions: 1 2 3 4 5 6 7 8 9 10 11 12 13 14 15 16
000
FTUS41 KAKQ 262325
TAFORF
TAF
KORF 262325Z 2700/2724 12006KT P6SM SKC
     FM270800 17003KT P6SM SCT200
     FM271500 17007KT P6SM SCT120 BKN200
     FM272000 18009KT P6SM BKN120 BKN200=

USA.gov is the U.S. government's official web portal to all federal, state and local government web resources and services.